Time;durP1;ratioP1;P1;durP2;ratioP2;P2;SDS_P1;SDS_P2;PMS_P1;PMS_P2;Temp;Humidity;BMP_temperature;BMP_pressure;BME280_temperature;BME280_humidity;BME280_pressure;Samples;Min_cycle;Max_cycle;Signal;HPM_P1;HPM_P2
2023/04/24 00:02:19;;;;;;;1.50;0.80;;;12.80;70.70;;;15.50;48.21;96584.78;5062920;28;20067;-49
2023/04/24 00:04:48;;;;;;;1.00;1.00;;;12.80;70.50;;;15.50;48.17;96585.59;5061239;28;20048;-47
2023/04/24 00:07:16;;;;;;;3.55;1.00;;;12.70;70.80;;;15.50;48.06;96582.91;5059025;28;20414;-49
2023/04/24 00:09:44;;;;;;;1.10;1.00;;;12.70;71.00;;;15.55;48.11;96582.25;5059454;28;20589;-48
2023/04/24 00:12:12;;;;;;;1.60;1.00;;;12.60;71.10;;;15.54;48.07;96583.28;5051123;28;20052;-48
2023/04/24 00:14:40;;;;;;;1.77;1.08;;;12.60;71.50;;;15.54;48.10;96583.28;5058080;28;20048;-52
2023/04/24 00:17:07;;;;;;;1.10;0.98;;;12.60;70.90;;;15.54;48.15;96597.50;5061810;28;20041;-47
2023/04/24 00:19:35;;;;;;;2.10;1.75;;;12.60;71.20;;;15.57;48.01;96598.97;5062546;28;20397;-52
2023/04/24 00:22:03;;;;;;;1.52;0.98;;;12.70;71.80;;;15.58;48.06;96605.13;5060289;28;20051;-49
2023/04/24 00:24:31;;;;;;;2.13;0.80;;;12.80;70.60;;;15.55;48.14;96599.16;5056165;28;20033;-48
2023/04/24 00:27:00;;;;;;;0.88;0.80;;;12.70;70.70;;;15.57;47.89;96590.91;5060128;28;20086;-51
2023/04/24 00:29:28;;;;;;;2.13;0.90;;;12.70;70.70;;;15.59;47.76;96593.38;5062395;28;20036;-48
2023/04/24 00:31:56;;;;;;;1.40;0.80;;;12.70;70.40;;;15.57;47.78;96598.97;5059366;28;20093;-51
2023/04/24 00:34:23;;;;;;;1.67;0.70;;;12.70;70.20;;;15.61;47.52;96593.97;5059095;28;20048;-47
2023/04/24 00:36:52;;;;;;;1.98;1.42;;;12.80;69.60;;;15.63;47.68;96583.84;5059227;28;20041;-49
2023/04/24 00:39:20;;;;;;;2.20;0.80;;;12.80;69.30;;;15.65;47.58;96595.19;5062161;28;20052;-46
2023/04/24 00:41:48;;;;;;;3.10;1.05;;;12.80;69.20;;;15.65;47.48;96585.28;5044705;28;20064;-49
2023/04/24 00:44:15;;;;;;;2.38;0.90;;;12.90;69.20;;;15.66;47.58;96586.91;5050682;28;20045;-50
2023/04/24 00:46:43;;;;;;;1.08;0.98;;;12.80;69.30;;;15.70;47.55;96587.28;5037509;28;20056;-47
2023/04/24 00:49:13;;;;;;;0.90;0.90;;;12.90;69.40;;;15.74;47.37;96581.31;5060068;28;20045;-52
2023/04/24 00:51:45;;;;;;;1.10;1.00;;;12.90;70.10;;;15.80;47.32;96584.13;5060989;28;20056;-47
2023/04/24 00:54:13;;;;;;;2.15;0.85;;;13.00;68.90;;;15.82;47.31;96590.09;5058919;28;20045;-49
2023/04/24 00:56:42;;;;;;;1.48;1.08;;;13.00;68.70;;;15.83;47.15;96589.06;5057096;28;20430;-50
2023/04/24 00:59:16;;;;;;;1.63;1.10;;;13.00;68.60;;;15.81;46.98;96586.59;5061470;28;20043;-46
2023/04/24 01:01:45;;;;;;;1.00;0.90;;;12.90;69.10;;;15.83;47.09;96572.97;5052752;28;20052;-51
2023/04/24 01:04:13;;;;;;;5.57;1.38;;;13.00;68.90;;;15.78;47.26;96573.66;5048958;28;20048;-47
2023/04/24 01:06:44;;;;;;;0.80;0.80;;;13.00;68.90;;;15.79;47.10;96580.63;5037486;28;20450;-46
2023/04/24 01:09:12;;;;;;;0.70;0.70;;;13.00;69.00;;;15.79;47.23;96579.81;5042738;28;20048;-49
2023/04/24 01:11:42;;;;;;;1.00;0.90;;;12.90;69.20;;;15.80;47.32;96570.72;5061996;28;20043;-52
2023/04/24 01:14:12;;;;;;;2.35;1.60;;;12.90;69.10;;;15.79;47.16;96567.22;5058951;28;20514;-48
2023/04/24 01:16:41;;;;;;;1.33;0.93;;;12.90;69.10;;;15.74;47.22;96564.38;5061020;28;20055;-52
2023/04/24 01:19:11;;;;;;;1.10;1.00;;;12.90;69.00;;;15.74;47.26;96562.53;5063312;28;20045;-50
2023/04/24 01:21:39;;;;;;;1.83;0.93;;;12.90;69.20;;;15.77;47.06;96547.03;5065742;28;20115;-50
2023/04/24 01:24:07;;;;;;;2.13;1.67;;;12.90;69.00;;;15.77;47.26;96549.72;5045334;28;20067;-50
2023/04/24 01:26:35;;;;;;;1.42;0.88;;;12.90;69.20;;;15.74;47.18;96548.25;5060761;28;20053;-46
2023/04/24 01:29:02;;;;;;;3.13;1.17;;;12.80;69.60;;;15.67;47.35;96556.34;5061926;28;20044;-51
2023/04/24 01:31:31;;;;;;;2.35;1.13;;;12.70;69.90;;;15.64;47.48;96553.28;5064361;28;20040;-52
2023/04/24 01:34:00;;;;;;;3.90;1.40;;;12.70;70.10;;;15.62;47.56;96550.81;5062744;28;20051;-48
2023/04/24 01:36:28;;;;;;;0.80;0.80;;;12.70;70.00;;;15.54;47.33;96546.56;5060890;28;20051;-50
2023/04/24 01:38:56;;;;;;;1.55;0.98;;;12.60;70.30;;;15.51;47.73;96540.84;5053385;28;20067;-48
2023/04/24 01:41:26;;;;;;;1.73;1.15;;;12.60;70.50;;;15.45;47.80;96544.38;5065560;28;20505;-49
2023/04/24 01:43:54;;;;;;;1.58;1.00;;;12.50;71.40;;;15.40;47.69;96544.22;5047116;28;20052;-52
2023/04/24 01:46:22;;;;;;;1.08;0.95;;;12.40;71.30;;;15.36;48.13;96547.31;5040938;28;20087;-48
2023/04/24 01:48:51;;;;;;;1.55;1.00;;;12.40;71.80;;;15.33;48.06;96550.47;5056329;28;20044;-46
2023/04/24 01:51:19;;;;;;;2.50;1.10;;;12.30;71.70;;;15.35;48.09;96555.56;5054126;28;20033;-49
2023/04/24 01:53:47;;;;;;;3.75;1.38;;;12.40;71.50;;;15.32;48.21;96545.31;5059611;28;20438;-49
2023/04/24 01:56:15;;;;;;;0.80;0.80;;;12.50;71.50;;;15.31;48.46;96547.16;5064451;28;20072;-50
2023/04/24 01:58:43;;;;;;;1.92;0.82;;;12.40;71.70;;;15.33;48.50;96541.56;5063967;28;20053;-49
2023/04/24 02:01:18;;;;;;;1.20;1.08;;;12.50;71.60;;;15.35;48.36;96545.69;5061409;28;20059;-49
2023/04/24 02:03:47;;;;;;;2.40;0.80;;;12.50;72.40;;;15.36;48.42;96544.63;5060146;28;20048;-49
2023/04/24 02:06:15;;;;;;;1.33;0.82;;;12.50;71.90;;;15.38;48.29;96548.97;5062807;28;20044;-48
2023/04/24 02:08:43;;;;;;;0.82;0.82;;;12.40;72.60;;;15.38;48.50;96540.94;5065181;28;20513;-47
2023/04/24 02:11:10;;;;;;;2.65;1.00;;;12.40;72.00;;;15.38;48.27;96552.47;5061146;28;20052;-50
2023/04/24 02:13:38;;;;;;;0.95;0.85;;;12.40;72.10;;;15.38;48.54;96540.94;5059844;28;20053;-49
2023/04/24 02:16:06;;;;;;;1.20;0.90;;;12.50;72.20;;;15.38;48.57;96546.28;5062858;28;20064;-50
2023/04/24 02:18:33;;;;;;;1.08;0.90;;;12.40;72.20;;;15.39;48.43;96553.28;5062854;28;20048;-48
2023/04/24 02:21:01;;;;;;;1.13;0.80;;;12.40;72.50;;;15.38;48.63;96546.28;5061650;28;20041;-51
2023/04/24 02:23:28;;;;;;;0.80;0.80;;;12.40;72.50;;;15.39;48.67;96558.66;5059769;28;20037;-48
2023/04/24 02:25:56;;;;;;;1.35;0.90;;;12.40;72.50;;;15.36;48.88;96563.41;5060115;28;20041;-49
2023/04/24 02:28:24;;;;;;;1.23;1.00;;;12.40;73.70;;;15.38;49.25;96562.38;5063837;28;20060;-49
2023/04/24 02:30:52;;;;;;;1.08;0.90;;;12.40;74.50;;;15.40;49.58;96563.00;5062450;28;20528;-49
2023/04/24 02:33:22;;;;;;;3.58;1.08;;;12.50;75.30;;;15.37;49.86;96558.84;5053305;28;20040;-50
2023/04/24 02:35:50;;;;;;;1.33;0.77;;;12.40;76.50;;;15.39;50.23;96580.09;5060610;28;20498;-50
2023/04/24 02:38:17;;;;;;;2.42;0.90;;;12.40;77.20;;;15.29;51.03;96573.34;5062405;28;20040;-46
2023/04/24 02:40:45;;;;;;;0.98;0.85;;;12.40;79.20;;;15.21;51.23;96565.59;5064480;28;20044;-48
2023/04/24 02:43:13;;;;;;;0.80;0.80;;;12.30;79.80;;;15.16;51.34;96546.66;5061855;28;20056;-51
2023/04/24 02:45:40;;;;;;;3.03;1.25;;;12.20;80.70;;;15.16;51.38;96549.34;5058791;28;20060;-51
2023/04/24 02:48:08;;;;;;;2.05;1.13;;;12.20;81.40;;;15.12;51.73;96550.78;5061226;28;20128;-48
2023/04/24 02:50:36;;;;;;;1.35;0.93;;;12.10;84.20;;;15.07;51.72;96550.63;5062908;28;20422;-49
2023/04/24 02:53:03;;;;;;;1.95;1.02;;;12.10;82.40;;;15.02;51.50;96556.63;5061515;28;20048;-50
2023/04/24 02:55:31;;;;;;;1.02;0.80;;;12.00;82.30;;;14.96;51.54;96563.66;5059098;28;20426;-49
2023/04/24 02:57:59;;;;;;;1.55;1.10;;;12.00;82.20;;;14.90;51.90;96556.50;5059751;28;20082;-47
2023/04/24 03:00:26;;;;;;;1.63;1.05;;;11.90;82.60;;;14.83;51.90;96553.06;5062472;28;20434;-50
2023/04/24 03:02:54;;;;;;;1.40;1.02;;;11.90;82.90;;;14.80;52.10;96545.44;5061946;28;20056;-47
2023/04/24 03:05:22;;;;;;;3.67;1.00;;;11.80;83.40;;;14.75;52.00;96548.75;5058428;28;20048;-48
2023/04/24 03:07:49;;;;;;;2.08;1.30;;;11.80;83.60;;;14.71;52.41;96552.91;5059336;28;20064;-49
2023/04/24 03:10:17;;;;;;;1.00;0.90;;;11.70;85.00;;;14.69;52.46;96552.28;5044984;28;20394;-51
2023/04/24 03:12:44;;;;;;;2.07;0.97;;;11.70;85.20;;;14.69;52.54;96552.28;5063723;28;20045;-49
2023/04/24 03:15:12;;;;;;;1.47;1.03;;;11.60;86.00;;;14.70;52.66;96540.53;5061214;28;20051;-49
2023/04/24 03:17:39;;;;;;;1.55;1.08;;;11.60;87.00;;;14.68;52.86;96536.44;5060105;28;20041;-49
2023/04/24 03:20:08;;;;;;;1.40;1.08;;;11.60;87.10;;;14.70;52.96;96537.84;5059871;28;20056;-48
2023/04/24 03:22:36;;;;;;;1.57;1.00;;;11.60;87.60;;;14.73;52.65;96528.56;5062022;28;20048;-47
2023/04/24 03:25:09;;;;;;;1.93;0.90;;;11.70;87.80;;;14.70;52.65;96534.38;5043045;28;20052;-46
2023/04/24 03:27:37;;;;;;;1.80;1.27;;;11.60;87.80;;;14.67;52.58;96526.75;5056997;28;20053;-47
2023/04/24 03:30:17;;;;;;;3.63;1.05;;;11.60;87.70;;;14.60;52.80;96534.84;5068362;28;20446;-52
2023/04/24 03:32:50;;;;;;;1.35;0.98;;;11.50;88.30;;;14.54;53.15;96531.13;5062349;28;20433;-49
2023/04/24 03:35:22;;;;;;;3.37;1.10;;;11.50;89.40;;;14.55;53.11;96534.59;5057922;28;20045;-51
2023/04/24 03:37:51;;;;;;;1.33;1.03;;;11.50;90.20;;;14.56;53.11;96541.63;5054462;28;20410;-50
2023/04/24 03:40:37;;;;;;;1.75;0.90;;;11.60;89.40;;;14.60;53.05;96539.34;5056020;28;20056;-47
2023/04/24 03:43:14;;;;;;;4.67;1.23;;;11.70;89.20;;;14.63;53.11;96545.09;5060294;28;20049;-48
2023/04/24 03:45:42;;;;;;;1.60;0.90;;;11.60;89.30;;;14.63;53.10;96546.97;5060886;28;20052;-48
2023/04/24 03:48:12;;;;;;;2.63;1.20;;;11.60;89.20;;;14.62;53.04;96538.13;5043646;28;20525;-50
2023/04/24 03:50:39;;;;;;;2.47;0.97;;;11.60;89.20;;;14.63;53.27;96544.28;5058112;28;20053;-52
2023/04/24 03:53:10;;;;;;;2.33;1.13;;;11.60;89.70;;;14.63;53.35;96550.44;5059772;28;20057;-48
2023/04/24 03:55:41;;;;;;;1.37;1.10;;;11.60;90.10;;;14.67;53.04;96550.84;5060608;28;20049;-49
2023/04/24 03:58:11;;;;;;;2.07;1.00;;;11.60;89.90;;;14.69;53.27;96559.50;5059905;28;20056;-51
2023/04/24 04:00:40;;;;;;;2.17;1.02;;;11.70;90.00;;;14.68;53.23;96565.91;5058038;28;20053;-48
2023/04/24 04:03:27;;;;;;;2.97;1.33;;;11.60;90.50;;;14.32;54.66;96584.13;5058803;28;20056;-50
2023/04/24 04:05:55;;;;;;;2.37;1.60;;;11.30;92.90;;;14.17;55.51;96608.47;5057822;28;20056;-48
2023/04/24 04:08:23;;;;;;;8.30;2.37;;;11.20;99.20;;;13.86;57.01;96619.84;5062635;28;20067;-51
2023/04/24 04:10:50;;;;;;;2.57;1.40;;;10.90;99.90;;;13.88;56.89;96614.25;5061679;28;20067;-47
2023/04/24 04:13:18;;;;;;;2.47;1.30;;;10.80;99.90;;;13.45;58.49;96607.47;5060591;28;20040;-49
2023/04/24 04:15:45;;;;;;;1.27;1.10;;;10.60;99.90;;;12.86;58.93;96614.31;5057458;28;20044;-49
2023/04/24 04:18:13;;;;;;;1.30;1.17;;;10.20;99.90;;;13.07;58.14;96602.69;5057822;28;20052;-52
2023/04/24 04:20:41;;;;;;;3.53;1.13;;;10.20;99.90;;;13.15;57.74;96607.81;5061420;28;20059;-52
2023/04/24 04:23:10;;;;;;;1.33;1.10;;;10.20;99.90;;;13.25;57.24;96611.97;5059984;28;20425;-48
2023/04/24 04:25:56;;;;;;;4.00;1.37;;;10.20;99.90;;;13.15;57.53;96620.38;5056696;28;20514;-47
2023/04/24 04:28:33;;;;;;;2.43;1.27;;;10.20;99.90;;;13.09;57.61;96624.66;5048451;28;20053;-48
2023/04/24 04:31:02;;;;;;;2.50;1.40;;;10.10;99.90;;;12.94;57.58;96624.00;5070509;28;20358;-49
2023/04/24 04:33:30;;;;;;;1.73;1.40;;;10.10;99.90;;;12.78;58.20;96628.69;5061210;28;20547;-50
2023/04/24 04:35:58;;;;;;;2.07;1.50;;;10.00;99.90;;;12.94;57.44;96634.69;5060190;28;20071;-49
2023/04/24 04:38:29;;;;;;;2.27;1.50;;;9.90;99.90;;;12.62;58.68;96634.38;5053905;28;20045;-51
2023/04/24 04:41:05;;;;;;;1.67;1.30;;;9.90;99.90;;;12.61;58.69;96622.03;5056164;28;20406;-47
2023/04/24 04:43:34;;;;;;;1.53;1.20;;;9.80;99.90;;;12.76;58.37;96622.72;5060869;28;20055;-50
2023/04/24 04:46:03;;;;;;;1.70;1.23;;;9.80;99.90;;;12.94;57.59;96638.19;5060719;28;20048;-50
2023/04/24 04:48:48;;;;;;;1.63;1.10;;;9.90;99.90;;;12.93;58.33;96643.72;5048622;28;20128;-48
2023/04/24 04:51:16;;;;;;;2.27;1.30;;;10.00;99.90;;;13.14;57.20;96632.06;5062428;28;20490;-47
2023/04/24 04:53:44;;;;;;;3.07;1.20;;;10.10;99.90;;;12.71;58.60;96643.03;5065842;28;20053;-50
2023/04/24 04:56:12;;;;;;;1.73;1.43;;;9.90;99.90;;;12.68;58.15;96649.59;5062895;28;20060;-50
2023/04/24 04:58:42;;;;;;;4.43;1.70;;;9.80;99.90;;;12.44;58.70;96650.09;5061346;28;20513;-48
2023/04/24 05:01:13;;;;;;;3.13;1.57;;;9.70;99.90;;;12.40;59.08;96655.00;5061981;28;20045;-51
2023/04/24 05:03:44;;;;;;;2.10;1.67;;;9.60;99.90;;;12.36;58.92;96654.56;5064639;28;20102;-51
2023/04/24 05:06:15;;;;;;;2.57;1.43;;;9.60;99.90;;;12.26;59.71;96670.09;5062288;28;20055;-51
2023/04/24 05:08:43;;;;;;;3.37;1.60;;;9.50;99.90;;;12.38;59.36;96679.22;5061232;28;20060;-50
2023/04/24 05:11:21;;;;;;;3.57;1.80;;;9.50;99.90;;;12.33;58.89;96672.81;5063790;28;20049;-51
2023/04/24 05:13:49;;;;;;;2.20;1.50;;;9.50;99.90;;;12.45;58.76;96681.94;5063968;28;20505;-48
2023/04/24 05:16:22;;;;;;;4.97;1.67;;;9.60;99.90;;;12.60;58.79;96681.78;5061463;28;20044;-50
2023/04/24 05:18:52;;;;;;;2.83;1.90;;;9.60;99.90;;;12.69;58.21;96693.16;5060889;28;20056;-51
2023/04/24 05:21:26;;;;;;;2.47;1.80;;;9.80;99.90;;;12.86;57.84;96691.78;5080096;28;20055;-51
2023/04/24 05:23:55;;;;;;;3.33;2.10;;;9.90;99.90;;;12.90;57.57;96695.72;5064180;28;20524;-48
2023/04/24 05:26:41;;;;;;;2.13;1.60;;;9.90;99.90;;;12.78;57.99;96691.97;5060652;28;20053;-50
2023/04/24 05:29:10;;;;;;;2.43;1.90;;;9.80;99.90;;;12.71;57.95;96699.09;5061334;28;20096;-49
2023/04/24 05:31:37;;;;;;;4.93;1.87;;;9.70;99.90;;;12.76;57.60;96713.53;5042851;28;20046;-49
2023/04/24 05:34:05;;;;;;;2.37;1.67;;;9.80;99.90;;;12.77;57.62;96722.34;5057109;28;20045;-52
2023/04/24 05:36:33;;;;;;;2.30;1.90;;;9.80;99.90;;;12.56;58.33;96718.75;5063792;28;20048;-52
2023/04/24 05:39:01;;;;;;;6.80;3.33;;;9.70;99.90;;;12.70;57.65;96722.31;5064346;28;20052;-50
2023/04/24 05:41:28;;;;;;;5.80;3.20;;;9.70;99.90;;;12.89;57.35;96722.59;5052622;28;20490;-47
2023/04/24 05:43:56;;;;;;;3.10;2.60;;;9.90;99.90;;;12.96;57.59;96728.81;5062193;28;20045;-50
2023/04/24 05:46:23;;;;;;;2.90;2.50;;;10.00;99.90;;;13.02;57.24;96735.22;5063121;28;20426;-49
2023/04/24 05:48:51;;;;;;;3.67;2.30;;;10.00;99.90;;;13.17;57.26;96730.56;5063596;28;20501;-52
2023/04/24 05:51:19;;;;;;;3.37;2.80;;;10.20;99.90;;;13.27;57.20;96740.88;5045870;28;20044;-51
2023/04/24 05:53:47;;;;;;;3.70;2.00;;;10.30;99.90;;;13.15;56.43;96741.44;5060465;28;20040;-53
2023/04/24 05:56:15;;;;;;;2.47;1.87;;;10.20;99.90;;;13.23;56.56;96743.13;5062707;28;20048;-49
2023/04/24 05:58:43;;;;;;;2.67;2.03;;;10.20;99.90;;;13.22;56.02;96737.97;5063879;28;20513;-50
2023/04/24 06:01:10;;;;;;;3.50;2.17;;;10.10;99.90;;;13.29;56.04;96744.97;5062993;28;20055;-50
2023/04/24 06:03:39;;;;;;;6.37;1.67;;;10.20;99.90;;;13.31;55.73;96744.81;5059980;28;20053;-49
2023/04/24 06:06:08;;;;;;;3.63;2.53;;;10.20;99.90;;;13.34;55.92;96747.09;5056686;28;20084;-49
2023/04/24 06:08:36;;;;;;;3.13;1.90;;;10.20;99.90;;;13.33;55.71;96753.47;5065772;28;20045;-51
2023/04/24 06:11:03;;;;;;;2.87;2.20;;;10.20;99.90;;;13.39;55.78;96741.97;5055906;28;20402;-50
2023/04/24 06:13:32;;;;;;;2.70;1.83;;;10.30;99.90;;;13.48;55.04;96750.63;5063214;28;20044;-50
2023/04/24 06:16:18;;;;;;;2.40;2.00;;;10.40;99.90;;;13.56;54.92;96747.78;5063864;28;20524;-49
2023/04/24 06:18:53;;;;;;;3.53;2.37;;;10.50;99.90;;;13.58;55.32;96748.41;5059991;28;20049;-49
2023/04/24 06:21:21;;;;;;;3.90;2.53;;;10.60;99.90;;;13.78;54.52;96749.28;5061523;28;20057;-51
2023/04/24 06:23:49;;;;;;;2.17;1.87;;;10.80;99.90;;;13.92;54.40;96755.47;5063216;28;20051;-48
2023/04/24 06:26:17;;;;;;;2.17;1.80;;;11.00;99.90;;;14.07;54.09;96751.75;5059894;28;20044;-50
2023/04/24 06:28:44;;;;;;;3.77;1.90;;;11.20;99.90;;;14.21;54.08;96756.09;5060478;28;20052;-49
2023/04/24 06:31:12;;;;;;;2.60;2.07;;;11.30;99.90;;;14.25;54.10;96751.97;5059923;28;20461;-49
2023/04/24 06:33:39;;;;;;;4.93;1.90;;;11.30;99.90;;;14.06;53.55;96764.31;5063086;28;20044;-50
2023/04/24 06:36:07;;;;;;;2.90;2.13;;;11.20;99.90;;;13.80;52.33;96765.09;5062218;28;20041;-52
2023/04/24 06:38:35;;;;;;;2.90;1.90;;;11.00;99.90;;;14.03;52.97;96754.00;5064122;28;20060;-51
2023/04/24 06:41:04;;;;;;;5.07;2.10;;;11.10;99.90;;;14.06;53.07;96750.94;5060858;28;20474;-48
2023/04/24 06:43:32;;;;;;;2.27;1.90;;;11.20;99.90;;;13.88;53.14;96750.69;5064028;28;20433;-50
2023/04/24 06:46:00;;;;;;;2.57;1.90;;;11.00;99.90;;;14.06;53.20;96742.91;5064064;28;20045;-48
2023/04/24 06:48:27;;;;;;;3.63;2.40;;;11.20;99.90;;;13.91;53.10;96739.59;5061491;28;20045;-52
2023/04/24 06:50:55;;;;;;;2.77;2.23;;;11.20;99.90;;;13.99;52.60;96742.91;5060738;28;20049;-38
2023/04/24 06:53:23;;;;;;;2.50;2.00;;;11.20;99.80;;;14.01;51.80;96737.34;5062383;28;20045;-37
2023/04/24 06:55:51;;;;;;;4.60;2.30;;;11.20;95.90;;;14.09;51.75;96744.34;5063720;28;20489;-38
2023/04/24 06:58:18;;;;;;;4.40;2.00;;;11.20;97.00;;;13.99;51.72;96744.75;5063257;28;20048;-37
2023/04/24 07:00:46;;;;;;;3.10;1.97;;;11.20;98.40;;;14.07;51.18;96741.88;5060816;28;20421;-37
2023/04/24 07:03:13;;;;;;;1.77;1.50;;;11.40;93.70;;;13.45;50.60;96759.06;5061077;28;20052;-37
2023/04/24 07:05:42;;;;;;;2.50;2.00;;;11.10;89.80;;;13.67;51.73;96765.91;5063805;28;20044;-37
2023/04/24 07:08:11;;;;;;;3.03;1.80;;;11.20;94.30;;;13.69;51.02;96766.53;5062973;28;20045;-38
2023/04/24 07:10:38;;;;;;;2.50;2.03;;;11.20;90.70;;;13.59;51.03;96763.44;5052790;28;20045;-38
2023/04/24 07:13:06;;;;;;;2.53;1.90;;;11.20;89.20;;;13.46;50.54;96753.50;5059494;28;20068;-37
2023/04/24 07:15:34;;;;;;;4.30;1.97;;;11.10;86.50;;;13.59;50.64;96763.44;5063213;28;20036;-37
2023/04/24 07:18:02;;;;;;;2.53;1.70;;;11.20;87.70;;;13.87;50.13;96765.94;5063846;28;20048;-37
2023/04/24 07:20:33;;;;;;;3.78;1.98;;;11.30;86.50;;;13.76;49.45;96762.03;5060938;28;20041;-37
2023/04/24 07:23:02;;;;;;;2.47;1.90;;;11.30;83.00;;;13.73;48.19;96781.16;5060650;28;20045;-38
2023/04/24 07:25:30;;;;;;;2.47;2.00;;;11.30;77.90;;;13.62;49.04;96767.53;5062253;28;20490;-37
2023/04/24 07:27:57;;;;;;;2.63;2.10;;;11.30;79.10;;;13.62;48.25;96763.00;5063693;28;20052;-38
2023/04/24 07:30:25;;;;;;;4.67;2.43;;;11.30;76.50;;;13.88;47.93;96777.47;5062147;28;20465;-38
2023/04/24 07:32:53;;;;;;;2.27;1.70;;;11.30;77.90;;;13.97;48.24;96778.91;5059725;28;20037;-37
2023/04/24 07:35:20;;;;;;;2.10;1.67;;;11.40;77.60;;;14.21;47.69;96784.72;5059905;28;20045;-38
2023/04/24 07:37:48;;;;;;;2.33;1.73;;;11.50;75.80;;;14.23;47.45;96786.16;5061323;28;20040;-38
2023/04/24 07:40:16;;;;;;;2.67;1.60;;;11.50;75.50;;;14.11;47.31;96795.81;5061252;28;20081;-38
2023/04/24 07:42:43;;;;;;;3.10;1.90;;;11.40;73.00;;;14.13;47.76;96799.13;5058062;28;20056;-38
2023/04/24 07:45:11;;;;;;;3.07;1.77;;;11.40;75.90;;;13.81;47.65;96806.88;5059718;28;20040;-38
2023/04/24 07:47:39;;;;;;;2.13;1.93;;;11.20;74.20;;;13.65;48.01;96813.44;5051405;28;20502;-38
2023/04/24 07:50:07;;;;;;;4.03;2.07;;;11.10;75.20;;;13.73;47.80;96817.78;5059758;28;20045;-38
2023/04/24 07:52:34;;;;;;;2.67;1.80;;;11.10;74.40;;;13.36;48.16;96814.56;5062139;28;20028;-38
2023/04/24 07:55:03;;;;;;;4.40;2.20;;;10.90;73.70;;;13.39;48.25;96817.63;5062722;28;20037;-38
2023/04/24 07:57:30;;;;;;;2.47;2.15;;;10.80;74.60;;;13.31;47.02;96831.19;5060490;28;20489;-39
2023/04/24 07:59:58;;;;;;;5.83;1.60;;;10.80;70.00;;;12.97;46.66;96824.81;5059478;28;20510;-38
2023/04/24 08:02:26;;;;;;;2.87;1.60;;;10.60;68.20;;;12.99;46.96;96829.97;5060691;28;20446;-38
2023/04/24 08:04:54;;;;;;;2.27;1.20;;;10.60;68.90;;;12.42;46.48;96839.81;5062628;28;20044;-38
2023/04/24 08:07:24;;;;;;;2.87;1.70;;;10.40;66.50;;;12.57;46.80;96832.53;5061264;28;20769;-38
2023/04/24 08:09:51;;;;;;;5.50;1.80;;;10.30;68.30;;;12.56;46.98;96840.72;5059583;28;20064;-38
2023/04/24 08:12:19;;;;;;;2.57;1.80;;;10.30;68.80;;;12.50;47.47;96852.19;5059730;28;20045;-38
2023/04/24 08:14:47;;;;;;;3.53;1.67;;;10.30;68.90;;;12.34;45.72;96869.28;5062855;28;20045;-38
2023/04/24 08:17:14;;;;;;;3.13;1.50;;;10.40;63.80;;;12.54;45.58;96846.28;5062555;28;20298;-38
2023/04/24 08:19:47;;;;;;;2.83;1.87;;;10.40;63.50;;;12.94;45.18;96843.88;5041429;28;20044;-37
2023/04/24 08:22:15;;;;;;;3.10;1.77;;;10.60;65.10;;;12.70;45.81;96860.38;5057542;28;20048;-37
2023/04/24 08:24:43;;;;;;;2.23;1.40;;;10.50;65.00;;;12.64;45.61;96861.97;5061658;28;20524;-37
2023/04/24 08:27:11;;;;;;;2.37;1.77;;;10.60;64.40;;;12.81;45.66;96857.16;5062343;28;20494;-38
2023/04/24 08:29:38;;;;;;;2.70;1.70;;;10.60;64.70;;;12.91;45.74;96859.47;5059460;28;20041;-38
2023/04/24 08:32:06;;;;;;;2.70;2.00;;;10.60;66.00;;;13.06;45.29;96859.38;5056948;28;20056;-38
2023/04/24 08:34:34;;;;;;;1.80;1.37;;;10.90;65.20;;;12.79;45.77;96860.03;5061688;28;20045;-38
2023/04/24 08:37:02;;;;;;;1.53;1.30;;;10.90;63.30;;;12.99;44.59;96852.16;5062417;28;20044;-38
2023/04/24 08:39:30;;;;;;;2.00;1.23;;;11.10;61.50;;;13.00;44.54;96845.78;5026164;28;20041;-38
2023/04/24 08:42:05;;;;;;;1.47;1.27;;;11.10;61.10;;;13.43;44.38;96855.50;5059117;28;20043;-39
2023/04/24 08:44:33;;;;;;;2.50;1.50;;;11.30;60.80;;;13.79;44.00;96862.44;5059951;28;20537;-38
2023/04/24 08:47:02;;;;;;;3.17;1.20;;;11.50;61.50;;;14.11;43.50;96857.38;5061165;28;20036;-38
2023/04/24 08:49:30;;;;;;;2.60;1.40;;;11.60;61.80;;;13.95;42.68;96855.91;5060565;28;20036;-38
2023/04/24 08:51:59;;;;;;;1.87;1.30;;;11.60;59.50;;;14.03;42.51;96852.22;5057851;28;20040;-38
2023/04/24 08:54:27;;;;;;;5.50;1.77;;;11.70;58.50;;;13.58;42.93;96855.38;5059017;28;20052;-38
2023/04/24 08:57:03;;;;;;;1.60;1.47;;;11.50;58.50;;;14.06;42.46;96857.19;5061069;28;20425;-39
2023/04/24 08:59:31;;;;;;;1.80;1.23;;;11.80;57.30;;;14.13;41.60;96864.19;5059527;28;20032;-38
2023/04/24 09:02:02;;;;;;;2.75;1.00;;;11.80;56.70;;;13.98;41.72;96869.72;5058677;28;20052;-38
2023/04/24 09:04:32;;;;;;;2.30;1.60;;;11.70;57.80;;;14.11;40.38;96881.47;5060532;28;20041;-38
2023/04/24 09:07:01;;;;;;;1.38;1.27;;;11.70;55.20;;;13.65;41.43;96887.47;5061116;28;20495;-39
2023/04/24 09:09:32;;;;;;;1.42;1.20;;;11.40;56.00;;;13.34;40.97;96888.78;5060405;28;20409;-38
2023/04/24 09:12:00;;;;;;;1.25;1.10;;;11.10;54.80;;;13.07;40.96;96885.09;5058574;28;20041;-39
2023/04/24 09:14:31;;;;;;;2.33;1.17;;;11.00;55.50;;;12.68;42.27;96897.94;5060036;28;20143;-38
2023/04/24 09:16:58;;;;;;;1.57;1.17;;;10.90;56.10;;;13.02;42.46;96903.53;5061760;28;20037;-38
2023/04/24 09:19:26;;;;;;;1.33;1.00;;;11.00;57.50;;;12.97;42.79;96877.41;5059598;28;20076;-38
2023/04/24 09:21:54;;;;;;;1.60;1.42;;;11.10;57.30;;;13.44;42.65;96891.91;5058820;28;20033;-37
2023/04/24 09:24:22;;;;;;;1.83;1.20;;;11.40;57.80;;;14.03;42.04;96881.66;5058895;28;20053;-37
2023/04/24 09:26:58;;;;;;;3.70;1.35;;;11.70;57.90;;;13.74;41.79;96895.13;5057382;28;20059;-38
2023/04/24 09:29:26;;;;;;;2.00;1.27;;;11.70;56.70;;;14.06;41.08;96895.47;5060215;28;20041;-38
2023/04/24 09:31:53;;;;;;;1.30;1.10;;;11.80;55.90;;;14.37;40.67;96883.38;5059103;28;20045;-38
2023/04/24 09:34:24;;;;;;;1.90;1.30;;;12.00;55.70;;;14.55;40.32;96898.84;5058047;28;20045;-38
2023/04/24 09:36:52;;;;;;;2.40;1.10;;;12.20;55.00;;;13.99;40.68;96905.31;5065176;28;20048;-38
2023/04/24 09:39:20;;;;;;;1.52;1.00;;;11.90;55.00;;;13.75;40.86;96899.47;5051864;28;20045;-38
2023/04/24 09:41:58;;;;;;;2.90;1.50;;;11.60;55.60;;;13.90;41.60;96895.81;5059679;28;20044;-38
2023/04/24 09:44:28;;;;;;;1.57;1.20;;;11.60;56.70;;;14.16;40.91;96889.72;5062635;28;20045;-38
2023/04/24 09:46:58;;;;;;;2.13;1.37;;;11.70;56.30;;;14.39;40.73;96897.38;5066013;28;20033;-38
2023/04/24 09:49:30;;;;;;;2.28;1.65;;;11.90;56.00;;;14.58;40.53;96898.47;5058856;28;20041;-37
2023/04/24 09:52:07;;;;;;;3.65;1.58;;;12.20;55.40;;;14.69;40.40;96905.88;5051921;28;20512;-37
2023/04/24 09:54:36;;;;;;;1.67;1.30;;;12.30;55.90;;;14.50;41.00;96920.06;5062215;28;20112;-38
2023/04/24 09:57:04;;;;;;;2.00;1.55;;;12.20;57.30;;;14.57;41.07;96919.06;5064856;28;20044;-38
2023/04/24 09:59:31;;;;;;;3.40;2.10;;;12.20;56.80;;;14.69;40.57;96918.47;5063105;28;20055;-38
2023/04/24 10:02:00;;;;;;;2.67;1.67;;;12.30;56.70;;;14.64;40.90;96932.47;5060114;28;20056;-37
2023/04/24 10:04:29;;;;;;;1.88;1.70;;;12.10;56.80;;;14.64;40.46;96929.00;5062612;28;20045;-37
2023/04/24 10:06:57;;;;;;;1.92;1.40;;;12.00;56.40;;;14.67;40.27;96923.19;5064902;28;20052;-38
2023/04/24 10:09:26;;;;;;;2.30;1.55;;;12.00;56.50;;;14.55;40.66;96928.31;5064963;28;20520;-38
2023/04/24 10:11:54;;;;;;;3.80;1.85;;;12.00;56.40;;;14.61;40.50;96934.75;5062068;28;20041;-38
2023/04/24 10:14:25;;;;;;;2.17;1.33;;;12.00;56.20;;;14.70;39.96;96934.34;5061779;28;20036;-38
2023/04/24 10:16:58;;;;;;;2.45;1.65;;;12.10;55.70;;;14.56;39.83;96935.34;5064391;28;20472;-38
2023/04/24 10:19:26;;;;;;;2.78;1.60;;;11.90;54.30;;;14.73;39.48;96938.44;5064144;28;20041;-38
2023/04/24 10:21:55;;;;;;;1.48;1.33;;;12.00;55.00;;;14.18;40.36;96946.56;5060215;28;20051;-37
2023/04/24 10:24:23;;;;;;;2.53;1.60;;;11.70;55.90;;;13.96;40.18;96946.69;5061170;28;20044;-38
2023/04/24 10:26:51;;;;;;;2.55;1.73;;;11.50;55.40;;;14.08;39.93;96957.63;5064436;28;20044;-38
2023/04/24 10:29:19;;;;;;;3.20;1.85;;;11.50;55.00;;;13.85;39.86;96962.47;5064648;28;20044;-38